LVEXJ SABE-SAAR
Flight info
| Callsign | LVEXJ |
|---|---|
| Flight time | 0h 51m |
| Altitude | 20000 |
| Route | ATOVO 4B ATOVO W5 ESKON DCT |
| Aircraft | BE9L/L-SGHDR/S |
Departure
| Time | 2026-05-03 20:23 |
|---|---|
| Airport | Aeroparque Jorge Newbery (SABE) |
Arrival
| Time | 2026-05-03 21:14 |
|---|---|
| Airport | Rosario Islas Malvinas International Airport (SAAR) |
| Time | Latitude | Longitude | Altitude | Speed | Heading |
|---|---|---|---|---|---|
| 2026-05-03 20:15 | -34.56344 | -58.41142 | 50 ft | 0 kts | 214° |
| 2026-05-03 20:15 | -34.56374 | -58.41150 | 24 ft | 12 kts | 157° |
| 2026-05-03 20:15 | -34.56431 | -58.41053 | 24 ft | 11 kts | 124° |
| 2026-05-03 20:15 | -34.56485 | -58.40956 | 22 ft | 14 kts | 124° |
| 2026-05-03 20:16 | -34.56507 | -58.40916 | 23 ft | 3 kts | 118° |
| 2026-05-03 20:16 | -34.56513 | -58.40862 | 22 ft | 10 kts | 71° |
| 2026-05-03 20:16 | -34.56493 | -58.40805 | 22 ft | 0 kts | 65° |
| 2026-05-03 20:19 | -34.56471 | -58.40749 | 22 ft | 16 kts | 63° |
| 2026-05-03 20:20 | -34.56427 | -58.40679 | 20 ft | 0 kts | 357° |
| 2026-05-03 20:20 | -34.56412 | -58.40698 | 20 ft | 10 kts | 296° |
| 2026-05-03 20:20 | -34.56401 | -58.40718 | 21 ft | 3 kts | 306° |
| 2026-05-03 20:21 | -34.56400 | -58.40721 | 21 ft | 0 kts | 305° |
| 2026-05-03 20:21 | -34.56368 | -58.40776 | 21 ft | 30 kts | 305° |
| 2026-05-03 20:22 | -34.56142 | -58.41181 | 24 ft | 85 kts | 305° |
| 2026-05-03 20:22 | -34.55730 | -58.41919 | 64 ft | 122 kts | 303° |
| 2026-05-03 20:22 | -34.55235 | -58.42848 | 283 ft | 138 kts | 303° |
| 2026-05-03 20:22 | -34.54709 | -58.43876 | 602 ft | 146 kts | 305° |
| 2026-05-03 20:23 | -34.54163 | -58.44811 | 1233 ft | 129 kts | 321° |
| 2026-05-03 20:23 | -34.53417 | -58.45403 | 1711 ft | 127 kts | 339° |
| 2026-05-03 20:23 | -34.52567 | -58.45654 | 2224 ft | 127 kts | 356° |
| 2026-05-03 20:23 | -34.51686 | -58.45537 | 2740 ft | 129 kts | 12° |
| 2026-05-03 20:24 | -34.50870 | -58.45051 | 3149 ft | 138 kts | 27° |
| 2026-05-03 20:24 | -34.50052 | -58.44402 | 3567 ft | 141 kts | 26° |
| 2026-05-03 20:24 | -34.49230 | -58.43754 | 4020 ft | 142 kts | 26° |
| 2026-05-03 20:24 | -34.48390 | -58.43094 | 4419 ft | 146 kts | 26° |
| 2026-05-03 20:25 | -34.47530 | -58.42417 | 4823 ft | 149 kts | 26° |
| 2026-05-03 20:25 | -34.46656 | -58.41729 | 5226 ft | 151 kts | 26° |
| 2026-05-03 20:25 | -34.45771 | -58.41032 | 5636 ft | 153 kts | 26° |
| 2026-05-03 20:25 | -34.44875 | -58.40326 | 6065 ft | 155 kts | 26° |
| 2026-05-03 20:26 | -34.43966 | -58.39613 | 6506 ft | 157 kts | 26° |
| 2026-05-03 20:26 | -34.43042 | -58.38887 | 6925 ft | 159 kts | 26° |
| 2026-05-03 20:26 | -34.42113 | -58.38157 | 7347 ft | 160 kts | 25° |
| 2026-05-03 20:26 | -34.41178 | -58.37421 | 7763 ft | 161 kts | 25° |
| 2026-05-03 20:27 | -34.40235 | -58.36680 | 8182 ft | 162 kts | 24° |
| 2026-05-03 20:27 | -34.39223 | -58.36201 | 8600 ft | 153 kts | 358° |
| 2026-05-03 20:27 | -34.38193 | -58.36270 | 9038 ft | 145 kts | 336° |
| 2026-05-03 20:27 | -34.37308 | -58.36792 | 9475 ft | 140 kts | 320° |
| 2026-05-03 20:28 | -34.36485 | -58.37443 | 9922 ft | 142 kts | 321° |
| 2026-05-03 20:28 | -34.35653 | -58.38095 | 10326 ft | 143 kts | 320° |
| 2026-05-03 20:28 | -34.34815 | -58.38755 | 10710 ft | 145 kts | 320° |
| 2026-05-03 20:28 | -34.33972 | -58.39422 | 11036 ft | 152 kts | 320° |
| 2026-05-03 20:29 | -34.33024 | -58.40175 | 11135 ft | 171 kts | 321° |
| 2026-05-03 20:29 | -34.31973 | -58.41003 | 11153 ft | 189 kts | 321° |
| 2026-05-03 20:29 | -34.30838 | -58.41893 | 11151 ft | 199 kts | 322° |
| 2026-05-03 20:29 | -34.29659 | -58.42818 | 11147 ft | 205 kts | 322° |
| 2026-05-03 20:30 | -34.28455 | -58.43765 | 11146 ft | 208 kts | 322° |
| 2026-05-03 20:30 | -34.27251 | -58.44713 | 11147 ft | 210 kts | 322° |
| 2026-05-03 20:30 | -34.26022 | -58.45681 | 11145 ft | 212 kts | 322° |
| 2026-05-03 20:30 | -34.24781 | -58.46658 | 11146 ft | 213 kts | 322° |
| 2026-05-03 20:31 | -34.23547 | -58.47643 | 11205 ft | 210 kts | 322° |
| 2026-05-03 20:31 | -34.22401 | -58.48553 | 11803 ft | 184 kts | 321° |
| 2026-05-03 20:31 | -34.21391 | -58.49325 | 12514 ft | 160 kts | 321° |
| 2026-05-03 20:31 | -34.20456 | -58.50011 | 12968 ft | 158 kts | 321° |
| 2026-05-03 20:32 | -34.19508 | -58.50695 | 13312 ft | 160 kts | 321° |
| 2026-05-03 20:32 | -34.18548 | -58.51378 | 13668 ft | 161 kts | 321° |
| 2026-05-03 20:32 | -34.17575 | -58.52063 | 14006 ft | 162 kts | 321° |
| 2026-05-03 20:32 | -34.16593 | -58.52748 | 14320 ft | 164 kts | 321° |
| 2026-05-03 20:33 | -34.15603 | -58.53434 | 14621 ft | 165 kts | 321° |
| 2026-05-03 20:33 | -34.14604 | -58.54120 | 14928 ft | 166 kts | 321° |
| 2026-05-03 20:33 | -34.13598 | -58.54806 | 15236 ft | 167 kts | 321° |
| 2026-05-03 20:33 | -34.12584 | -58.55492 | 15545 ft | 167 kts | 321° |
| 2026-05-03 20:34 | -34.11562 | -58.56179 | 15852 ft | 168 kts | 321° |
| 2026-05-03 20:34 | -34.10579 | -58.56919 | 16132 ft | 161 kts | 301° |
| 2026-05-03 20:34 | -34.10279 | -58.58106 | 16416 ft | 151 kts | 272° |
| 2026-05-03 20:34 | -34.10028 | -58.59356 | 16659 ft | 155 kts | 284° |
| 2026-05-03 20:35 | -34.09631 | -58.60582 | 16948 ft | 158 kts | 287° |
| 2026-05-03 20:35 | -34.09193 | -58.61800 | 17250 ft | 159 kts | 287° |
| 2026-05-03 20:35 | -34.08746 | -58.63020 | 17542 ft | 160 kts | 287° |
| 2026-05-03 20:35 | -34.08296 | -58.64245 | 17837 ft | 160 kts | 287° |
| 2026-05-03 20:36 | -34.07844 | -58.65476 | 18130 ft | 161 kts | 287° |
| 2026-05-03 20:36 | -34.07391 | -58.66711 | 18414 ft | 161 kts | 287° |
| 2026-05-03 20:36 | -34.06936 | -58.67952 | 18662 ft | 162 kts | 287° |
| 2026-05-03 20:36 | -34.06479 | -58.69195 | 18904 ft | 163 kts | 287° |
| 2026-05-03 20:37 | -34.06020 | -58.70444 | 19152 ft | 163 kts | 287° |
| 2026-05-03 20:37 | -34.05559 | -58.71697 | 19393 ft | 164 kts | 286° |
| 2026-05-03 20:37 | -34.05097 | -58.72953 | 19630 ft | 164 kts | 286° |
| 2026-05-03 20:37 | -34.04633 | -58.74214 | 19862 ft | 165 kts | 286° |
| 2026-05-03 20:38 | -34.04166 | -58.75485 | 20037 ft | 169 kts | 286° |
| 2026-05-03 20:38 | -34.03676 | -58.76819 | 20098 ft | 178 kts | 287° |
| 2026-05-03 20:38 | -34.03160 | -58.78217 | 20127 ft | 187 kts | 287° |
| 2026-05-03 20:38 | -34.02622 | -58.79676 | 20138 ft | 194 kts | 287° |
| 2026-05-03 20:39 | -34.02253 | -58.80673 | 20132 ft | 198 kts | 288° |
| 2026-05-03 20:39 | -34.01492 | -58.82735 | 20136 ft | 204 kts | 288° |
| 2026-05-03 20:39 | -34.00910 | -58.84311 | 20132 ft | 210 kts | 288° |
| 2026-05-03 20:39 | -34.00305 | -58.85958 | 20133 ft | 219 kts | 288° |
| 2026-05-03 20:40 | -33.99675 | -58.87660 | 20131 ft | 225 kts | 288° |
| 2026-05-03 20:40 | -33.99030 | -58.89400 | 20130 ft | 229 kts | 288° |
| 2026-05-03 20:40 | -33.98376 | -58.91166 | 20134 ft | 232 kts | 288° |
| 2026-05-03 20:40 | -33.97715 | -58.92951 | 20132 ft | 234 kts | 288° |
| 2026-05-03 20:41 | -33.97050 | -58.94746 | 20125 ft | 236 kts | 289° |
| 2026-05-03 20:41 | -33.96379 | -58.96557 | 20126 ft | 237 kts | 289° |
| 2026-05-03 20:41 | -33.95707 | -58.98370 | 20125 ft | 238 kts | 289° |
| 2026-05-03 20:41 | -33.95032 | -59.00190 | 20127 ft | 238 kts | 289° |
| 2026-05-03 20:42 | -33.94363 | -59.01993 | 20129 ft | 239 kts | 289° |
| 2026-05-03 20:42 | -33.93685 | -59.03820 | 20127 ft | 239 kts | 289° |
| 2026-05-03 20:42 | -33.93006 | -59.05647 | 20130 ft | 239 kts | 289° |
| 2026-05-03 20:42 | -33.92328 | -59.07472 | 20130 ft | 239 kts | 289° |
| 2026-05-03 20:43 | -33.91648 | -59.09301 | 20124 ft | 239 kts | 289° |
| 2026-05-03 20:43 | -33.90968 | -59.11128 | 20124 ft | 239 kts | 289° |
| 2026-05-03 20:43 | -33.90288 | -59.12954 | 20127 ft | 239 kts | 289° |
| 2026-05-03 20:43 | -33.89608 | -59.14782 | 20127 ft | 239 kts | 289° |
| 2026-05-03 20:44 | -33.88927 | -59.16609 | 20118 ft | 239 kts | 289° |
| 2026-05-03 20:44 | -33.88245 | -59.18436 | 20115 ft | 239 kts | 289° |
| 2026-05-03 20:44 | -33.87563 | -59.20263 | 20121 ft | 239 kts | 289° |
| 2026-05-03 20:44 | -33.86882 | -59.22088 | 20118 ft | 239 kts | 289° |
| 2026-05-03 20:45 | -33.86201 | -59.23912 | 20118 ft | 239 kts | 289° |
| 2026-05-03 20:45 | -33.85518 | -59.25739 | 20123 ft | 239 kts | 289° |
| 2026-05-03 20:45 | -33.84836 | -59.27564 | 20114 ft | 239 kts | 289° |
| 2026-05-03 20:45 | -33.84153 | -59.29390 | 20103 ft | 240 kts | 289° |
| 2026-05-03 20:46 | -33.83468 | -59.31218 | 20098 ft | 240 kts | 289° |
| 2026-05-03 20:46 | -33.82783 | -59.33049 | 20107 ft | 240 kts | 289° |
| 2026-05-03 20:46 | -33.82096 | -59.34880 | 20107 ft | 240 kts | 289° |
| 2026-05-03 20:46 | -33.81410 | -59.36709 | 20106 ft | 240 kts | 289° |
| 2026-05-03 20:47 | -33.80725 | -59.38536 | 20106 ft | 240 kts | 289° |
| 2026-05-03 20:47 | -33.80039 | -59.40364 | 20104 ft | 240 kts | 289° |
| 2026-05-03 20:47 | -33.79354 | -59.42189 | 20103 ft | 240 kts | 289° |
| 2026-05-03 20:47 | -33.78667 | -59.44016 | 20106 ft | 240 kts | 289° |
| 2026-05-03 20:48 | -33.77981 | -59.45841 | 20099 ft | 240 kts | 289° |
| 2026-05-03 20:48 | -33.77294 | -59.47667 | 20098 ft | 240 kts | 289° |
| 2026-05-03 20:48 | -33.76607 | -59.49491 | 20100 ft | 240 kts | 289° |
| 2026-05-03 20:48 | -33.75921 | -59.51313 | 20092 ft | 240 kts | 289° |
| 2026-05-03 20:49 | -33.75233 | -59.53139 | 20099 ft | 240 kts | 289° |
| 2026-05-03 20:49 | -33.74546 | -59.54960 | 20103 ft | 240 kts | 289° |
| 2026-05-03 20:49 | -33.73858 | -59.56785 | 20103 ft | 240 kts | 289° |
| 2026-05-03 20:49 | -33.73402 | -59.57992 | 20101 ft | 240 kts | 289° |
| 2026-05-03 20:50 | -33.72714 | -59.59816 | 20095 ft | 240 kts | 289° |
| 2026-05-03 20:50 | -33.72025 | -59.61637 | 20086 ft | 240 kts | 289° |
| 2026-05-03 20:50 | -33.71337 | -59.63460 | 20093 ft | 239 kts | 289° |
| 2026-05-03 20:50 | -33.70649 | -59.65279 | 20090 ft | 239 kts | 289° |
| 2026-05-03 20:51 | -33.69863 | -59.67049 | 20089 ft | 244 kts | 301° |
| 2026-05-03 20:51 | -33.68764 | -59.68611 | 20092 ft | 246 kts | 304° |
| 2026-05-03 20:51 | -33.67658 | -59.70176 | 20093 ft | 246 kts | 303° |
| 2026-05-03 20:51 | -33.66661 | -59.71830 | 19997 ft | 245 kts | 296° |
| 2026-05-03 20:52 | -33.65760 | -59.73604 | 19755 ft | 253 kts | 296° |
| 2026-05-03 20:52 | -33.64787 | -59.75408 | 19477 ft | 261 kts | 298° |
| 2026-05-03 20:52 | -33.63746 | -59.77230 | 19174 ft | 267 kts | 299° |
| 2026-05-03 20:52 | -33.62691 | -59.79084 | 18863 ft | 271 kts | 298° |
| 2026-05-03 20:53 | -33.61636 | -59.80967 | 18544 ft | 273 kts | 298° |
| 2026-05-03 20:53 | -33.60575 | -59.82865 | 18206 ft | 275 kts | 299° |
| 2026-05-03 20:53 | -33.59506 | -59.84767 | 17866 ft | 273 kts | 299° |
| 2026-05-03 20:53 | -33.58457 | -59.86625 | 17550 ft | 265 kts | 299° |
| 2026-05-03 20:54 | -33.57436 | -59.88439 | 17241 ft | 260 kts | 299° |
| 2026-05-03 20:54 | -33.55449 | -59.91975 | 16641 ft | 253 kts | 300° |
| 2026-05-03 20:54 | -33.54470 | -59.93714 | 16351 ft | 251 kts | 300° |
| 2026-05-03 20:55 | -33.53497 | -59.95442 | 16063 ft | 250 kts | 300° |
| 2026-05-03 20:55 | -33.52526 | -59.97164 | 15778 ft | 249 kts | 300° |
| 2026-05-03 20:55 | -33.51560 | -59.98876 | 15492 ft | 247 kts | 300° |
| 2026-05-03 20:55 | -33.50600 | -60.00577 | 15206 ft | 246 kts | 300° |
| 2026-05-03 20:56 | -33.49644 | -60.02271 | 14919 ft | 245 kts | 300° |
| 2026-05-03 20:56 | -33.48691 | -60.03959 | 14637 ft | 244 kts | 301° |
| 2026-05-03 20:56 | -33.47739 | -60.05645 | 14353 ft | 244 kts | 301° |
| 2026-05-03 20:56 | -33.46788 | -60.07326 | 14069 ft | 244 kts | 301° |
| 2026-05-03 20:57 | -33.45837 | -60.09009 | 13780 ft | 244 kts | 301° |
| 2026-05-03 20:57 | -33.44887 | -60.10687 | 13482 ft | 243 kts | 301° |
| 2026-05-03 20:57 | -33.43943 | -60.12355 | 13197 ft | 242 kts | 301° |
| 2026-05-03 20:57 | -33.43001 | -60.14019 | 12909 ft | 241 kts | 302° |
| 2026-05-03 20:58 | -33.42064 | -60.15672 | 12627 ft | 240 kts | 302° |
| 2026-05-03 20:58 | -33.41130 | -60.17320 | 12355 ft | 239 kts | 302° |
| 2026-05-03 20:58 | -33.40198 | -60.18963 | 12067 ft | 238 kts | 302° |
| 2026-05-03 20:58 | -33.39274 | -60.20592 | 11797 ft | 234 kts | 302° |
| 2026-05-03 20:59 | -33.38364 | -60.22197 | 11529 ft | 232 kts | 303° |
| 2026-05-03 20:59 | -33.37460 | -60.23789 | 11261 ft | 231 kts | 303° |
| 2026-05-03 20:59 | -33.36572 | -60.25352 | 10998 ft | 230 kts | 303° |
| 2026-05-03 20:59 | -33.35676 | -60.26929 | 10733 ft | 228 kts | 303° |
| 2026-05-03 21:00 | -33.34784 | -60.28498 | 10470 ft | 227 kts | 304° |
| 2026-05-03 21:00 | -33.34184 | -60.29552 | 10290 ft | 227 kts | 304° |
| 2026-05-03 21:00 | -33.33011 | -60.31614 | 9940 ft | 226 kts | 304° |
| 2026-05-03 21:00 | -33.32131 | -60.33160 | 9660 ft | 224 kts | 304° |
| 2026-05-03 21:01 | -33.31257 | -60.34695 | 9394 ft | 222 kts | 304° |
| 2026-05-03 21:01 | -33.30390 | -60.36217 | 9133 ft | 221 kts | 304° |
| 2026-05-03 21:01 | -33.29528 | -60.37729 | 8876 ft | 219 kts | 304° |
| 2026-05-03 21:01 | -33.28672 | -60.39230 | 8623 ft | 218 kts | 304° |
| 2026-05-03 21:02 | -33.27820 | -60.40724 | 8367 ft | 216 kts | 304° |
| 2026-05-03 21:02 | -33.26984 | -60.42189 | 8119 ft | 211 kts | 304° |
| 2026-05-03 21:02 | -33.26164 | -60.43626 | 7876 ft | 208 kts | 305° |
| 2026-05-03 21:02 | -33.25355 | -60.45042 | 7636 ft | 205 kts | 305° |
| 2026-05-03 21:03 | -33.24555 | -60.46442 | 7405 ft | 203 kts | 306° |
| 2026-05-03 21:03 | -33.23764 | -60.47825 | 7168 ft | 201 kts | 306° |
| 2026-05-03 21:03 | -33.22980 | -60.49199 | 6938 ft | 199 kts | 306° |
| 2026-05-03 21:03 | -33.22201 | -60.50560 | 6707 ft | 198 kts | 306° |
| 2026-05-03 21:04 | -33.21427 | -60.51913 | 6472 ft | 197 kts | 306° |
| 2026-05-03 21:04 | -33.20658 | -60.53257 | 6241 ft | 195 kts | 306° |
| 2026-05-03 21:04 | -33.19892 | -60.54593 | 6012 ft | 194 kts | 306° |
| 2026-05-03 21:04 | -33.19133 | -60.55920 | 5789 ft | 193 kts | 306° |
| 2026-05-03 21:05 | -33.18376 | -60.57240 | 5567 ft | 192 kts | 306° |
| 2026-05-03 21:05 | -33.17623 | -60.58554 | 5343 ft | 191 kts | 307° |
| 2026-05-03 21:05 | -33.16871 | -60.59866 | 5122 ft | 192 kts | 307° |
| 2026-05-03 21:05 | -33.16118 | -60.61179 | 4900 ft | 192 kts | 307° |
| 2026-05-03 21:06 | -33.15362 | -60.62495 | 4656 ft | 192 kts | 307° |
| 2026-05-03 21:06 | -33.14608 | -60.63810 | 4441 ft | 192 kts | 307° |
| 2026-05-03 21:06 | -33.13856 | -60.65120 | 4219 ft | 191 kts | 308° |
| 2026-05-03 21:06 | -33.13104 | -60.66428 | 3994 ft | 191 kts | 308° |
| 2026-05-03 21:07 | -33.12355 | -60.67731 | 3773 ft | 190 kts | 308° |
| 2026-05-03 21:07 | -33.11615 | -60.69016 | 3556 ft | 187 kts | 308° |
| 2026-05-03 21:07 | -33.10879 | -60.70296 | 3335 ft | 187 kts | 308° |
| 2026-05-03 21:07 | -33.10146 | -60.71570 | 3115 ft | 186 kts | 309° |
| 2026-05-03 21:08 | -33.09571 | -60.72907 | 3056 ft | 179 kts | 296° |
| 2026-05-03 21:08 | -33.09122 | -60.74264 | 3026 ft | 172 kts | 297° |
| 2026-05-03 21:08 | -33.08682 | -60.75555 | 3019 ft | 165 kts | 297° |
| 2026-05-03 21:08 | -33.08259 | -60.76796 | 3011 ft | 159 kts | 298° |
| 2026-05-03 21:09 | -33.07849 | -60.77997 | 3009 ft | 155 kts | 298° |
| 2026-05-03 21:09 | -33.07468 | -60.79113 | 3006 ft | 153 kts | 298° |
| 2026-05-03 21:09 | -33.07108 | -60.80137 | 3003 ft | 150 kts | 302° |
| 2026-05-03 21:09 | -33.06458 | -60.81069 | 2982 ft | 146 kts | 324° |
| 2026-05-03 21:10 | -33.05551 | -60.81625 | 2810 ft | 150 kts | 345° |
| 2026-05-03 21:10 | -33.04500 | -60.81701 | 2617 ft | 155 kts | 7° |
| 2026-05-03 21:10 | -33.03436 | -60.81450 | 2409 ft | 157 kts | 9° |
| 2026-05-03 21:10 | -33.02357 | -60.81204 | 2218 ft | 159 kts | 9° |
| 2026-05-03 21:11 | -33.01309 | -60.80964 | 2012 ft | 148 kts | 9° |
| 2026-05-03 21:11 | -33.00325 | -60.80740 | 1819 ft | 140 kts | 11° |
| 2026-05-03 21:11 | -32.99389 | -60.80526 | 1634 ft | 132 kts | 11° |
| 2026-05-03 21:11 | -32.98512 | -60.80326 | 1456 ft | 126 kts | 11° |
| 2026-05-03 21:12 | -32.97649 | -60.80130 | 1286 ft | 127 kts | 11° |
| 2026-05-03 21:12 | -32.96784 | -60.79933 | 1113 ft | 125 kts | 11° |
| 2026-05-03 21:12 | -32.95926 | -60.79738 | 953 ft | 129 kts | 11° |
| 2026-05-03 21:12 | -32.95029 | -60.79535 | 783 ft | 132 kts | 13° |
| 2026-05-03 21:13 | -32.94176 | -60.79339 | 624 ft | 116 kts | 11° |
| 2026-05-03 21:13 | -32.93431 | -60.79169 | 460 ft | 103 kts | 10° |
| 2026-05-03 21:13 | -32.92712 | -60.79012 | 322 ft | 112 kts | 11° |
| 2026-05-03 21:13 | -32.91945 | -60.78831 | 197 ft | 109 kts | 13° |
| 2026-05-03 21:14 | -32.91249 | -60.78671 | 95 ft | 93 kts | 8° |
| 2026-05-03 21:14 | -32.90805 | -60.78575 | 90 ft | 32 kts | 11° |
| 2026-05-03 21:14 | -32.90571 | -60.78528 | 89 ft | 28 kts | 10° |
| 2026-05-03 21:14 | -32.90534 | -60.78513 | 89 ft | 3 kts | 128° |
| 2026-05-03 21:15 | -32.90611 | -60.78524 | 88 ft | 18 kts | 195° |
| 2026-05-03 21:15 | -32.90720 | -60.78550 | 90 ft | 0 kts | 190° |
| 2026-05-03 21:15 | -32.90738 | -60.78554 | 89 ft | 13 kts | 192° |
| 2026-05-03 21:15 | -32.90855 | -60.78571 | 92 ft | 19 kts | 181° |
| 2026-05-03 21:16 | -32.91013 | -60.78521 | 91 ft | 28 kts | 157° |
| 2026-05-03 21:16 | -32.91197 | -60.78379 | 90 ft | 33 kts | 139° |
| 2026-05-03 21:16 | -32.91349 | -60.78239 | 90 ft | 30 kts | 141° |
| 2026-05-03 21:16 | -32.91476 | -60.78122 | 90 ft | 16 kts | 146° |
| 2026-05-03 21:17 | -32.91540 | -60.78092 | 90 ft | 10 kts | 120° |
| 2026-05-03 21:17 | -32.91544 | -60.78083 | 91 ft | 0 kts | 106° |